Time;durP1;ratioP1;P1;durP2;ratioP2;P2;SDS_P1;SDS_P2;PMS_P1;PMS_P2;Temp;Humidity;BMP_temperature;BMP_pressure;BME280_temperature;BME280_humidity;BME280_pressure;Samples;Min_cycle;Max_cycle;Signal;HPM_P1;HPM_P2
2022/08/07 00:01:12;;;;;;;;;;;16.70;96.80;;;;;;5084852;28;19967;-72
2022/08/07 00:03:39;;;;;;;;;;;16.60;96.90;;;;;;5084638;28;19927;-72
2022/08/07 00:06:06;;;;;;;;;;;16.60;97.20;;;;;;5084582;28;20163;-70
2022/08/07 00:08:33;;;;;;;;;;;16.60;97.40;;;;;;5084545;28;19955;-71
2022/08/07 00:10:59;;;;;;;;;;;16.60;97.30;;;;;;5084757;28;20163;-71
2022/08/07 00:13:26;;;;;;;;;;;16.60;97.30;;;;;;5084389;28;20200;-71
2022/08/07 00:15:54;;;;;;;;;;;16.50;97.20;;;;;;5084372;28;19962;-72
2022/08/07 00:18:21;;;;;;;;;;;16.50;97.10;;;;;;5084371;28;20116;-71
2022/08/07 00:20:49;;;;;;;;;;;16.40;97.20;;;;;;5084263;28;19920;-71
2022/08/07 00:23:16;;;;;;;;;;;16.40;96.60;;;;;;5084009;28;19924;-71
2022/08/07 00:25:42;;;;;;;;;;;16.40;96.70;;;;;;5084127;28;19928;-71
2022/08/07 00:28:09;;;;;;;;;;;16.30;96.60;;;;;;5084203;28;19956;-71
2022/08/07 00:30:35;;;;;;;;;;;16.30;96.70;;;;;;5084338;28;19992;-70
2022/08/07 00:33:03;;;;;;;;;;;16.30;96.80;;;;;;5083857;28;19988;-71
2022/08/07 00:35:30;;;;;;;;;;;16.20;96.80;;;;;;5083953;28;20014;-71
2022/08/07 00:37:57;;;;;;;;;;;16.20;96.90;;;;;;5084214;28;19979;-71
2022/08/07 00:40:23;;;;;;;;;;;16.10;97.10;;;;;;5083839;28;19940;-71
2022/08/07 00:42:50;;;;;;;;;;;16.10;97.30;;;;;;5083713;28;19920;-71
2022/08/07 00:45:17;;;;;;;;;;;16.10;97.60;;;;;;5083814;28;20173;-71
2022/08/07 00:47:43;;;;;;;;;;;16.10;97.80;;;;;;5082187;28;19920;-70
2022/08/07 00:50:11;;;;;;;;;;;16.10;97.90;;;;;;5083729;28;19929;-70
2022/08/07 00:52:38;;;;;;;;;;;16.10;97.60;;;;;;5083934;28;19920;-71
2022/08/07 00:55:05;;;;;;;;;;;16.10;97.50;;;;;;5083876;28;20177;-70
2022/08/07 00:57:32;;;;;;;;;;;16.10;97.60;;;;;;5083472;28;20175;-71
2022/08/07 00:59:59;;;;;;;;;;;16.00;97.60;;;;;;5083697;28;19958;-71
2022/08/07 01:02:25;;;;;;;;;;;16.00;97.60;;;;;;5083455;28;19959;-71
2022/08/07 01:04:52;;;;;;;;;;;16.00;97.70;;;;;;5083396;28;19958;-71
2022/08/07 01:07:20;;;;;;;;;;;16.00;97.70;;;;;;5083613;28;20172;-71
2022/08/07 01:09:47;;;;;;;;;;;16.00;98.10;;;;;;5083559;28;19988;-71
2022/08/07 01:12:14;;;;;;;;;;;15.90;98.00;;;;;;5083532;28;19987;-70
2022/08/07 01:14:41;;;;;;;;;;;15.90;98.10;;;;;;5083323;28;19947;-71
2022/08/07 01:17:08;;;;;;;;;;;15.80;98.20;;;;;;5083356;28;19952;-71
2022/08/07 01:19:35;;;;;;;;;;;15.80;98.40;;;;;;5083655;28;19955;-71
2022/08/07 01:22:03;;;;;;;;;;;15.80;98.80;;;;;;5083555;28;19959;-70
2022/08/07 01:24:31;;;;;;;;;;;15.80;98.80;;;;;;5083077;28;19925;-71
2022/08/07 01:26:58;;;;;;;;;;;15.80;98.90;;;;;;5083292;28;19971;-71
2022/08/07 01:29:26;;;;;;;;;;;15.80;99.10;;;;;;5083299;28;19987;-71
2022/08/07 01:31:53;;;;;;;;;;;15.80;99.30;;;;;;5083548;28;19992;-71
2022/08/07 01:34:20;;;;;;;;;;;15.80;99.50;;;;;;5083011;28;20287;-70
2022/08/07 01:36:48;;;;;;;;;;;15.80;99.60;;;;;;5083090;28;19976;-72
2022/08/07 01:39:16;;;;;;;;;;;15.80;99.70;;;;;;5083364;28;19927;-70
2022/08/07 01:41:43;;;;;;;;;;;15.80;99.90;;;;;;5083383;28;19951;-71
2022/08/07 01:44:10;;;;;;;;;;;15.70;99.90;;;;;;5082707;28;19927;-70
2022/08/07 01:46:37;;;;;;;;;;;15.60;99.90;;;;;;5083237;28;19983;-70
2022/08/07 01:49:03;;;;;;;;;;;15.60;99.90;;;;;;5083131;28;19920;-71
2022/08/07 01:51:30;;;;;;;;;;;15.50;99.90;;;;;;5083179;28;19988;-70
2022/08/07 01:53:58;;;;;;;;;;;15.40;99.90;;;;;;5083255;28;19960;-71
2022/08/07 01:56:27;;;;;;;;;;;15.40;99.90;;;;;;5083043;28;19921;-71
2022/08/07 01:58:57;;;;;;;;;;;15.40;99.90;;;;;;5085222;28;19959;-71
2022/08/07 02:01:25;;;;;;;;;;;15.30;99.90;;;;;;5087211;28;19920;-71
2022/08/07 02:03:56;;;;;;;;;;;15.30;99.90;;;;;;5086858;28;19947;-70
2022/08/07 02:06:24;;;;;;;;;;;15.20;99.90;;;;;;5086866;28;19921;-71
2022/08/07 02:08:51;;;;;;;;;;;15.20;99.90;;;;;;5086872;28;19920;-71
2022/08/07 02:11:18;;;;;;;;;;;15.20;99.90;;;;;;5086667;28;19967;-71
2022/08/07 02:13:46;;;;;;;;;;;15.10;99.90;;;;;;5086712;28;19920;-70
2022/08/07 02:16:14;;;;;;;;;;;15.10;99.90;;;;;;5086850;28;19987;-71
2022/08/07 02:18:42;;;;;;;;;;;15.00;99.90;;;;;;5086784;28;20160;-70
2022/08/07 02:21:09;;;;;;;;;;;14.90;99.90;;;;;;5085804;28;19963;-70
2022/08/07 02:23:37;;;;;;;;;;;14.90;99.90;;;;;;5086219;28;19927;-70
2022/08/07 02:26:05;;;;;;;;;;;14.80;99.90;;;;;;5086685;28;20145;-71
2022/08/07 02:28:33;;;;;;;;;;;14.80;99.90;;;;;;5086475;28;19988;-71
2022/08/07 02:31:02;;;;;;;;;;;14.70;99.90;;;;;;5086414;28;19920;-71
2022/08/07 02:33:29;;;;;;;;;;;14.70;99.90;;;;;;5086157;28;20123;-71
2022/08/07 02:35:56;;;;;;;;;;;14.60;99.90;;;;;;5086729;28;19920;-70
2022/08/07 02:38:25;;;;;;;;;;;14.60;99.90;;;;;;5086127;28;19929;-70
2022/08/07 02:40:52;;;;;;;;;;;14.60;99.90;;;;;;5086481;28;19958;-70
2022/08/07 02:43:19;;;;;;;;;;;14.50;99.90;;;;;;5085951;28;20251;-70
2022/08/07 02:45:47;;;;;;;;;;;14.50;99.90;;;;;;5086081;28;20267;-71
2022/08/07 02:48:15;;;;;;;;;;;14.50;99.90;;;;;;5086468;28;19920;-71
2022/08/07 02:50:43;;;;;;;;;;;14.40;99.90;;;;;;5086019;28;19963;-70
2022/08/07 02:53:11;;;;;;;;;;;14.50;99.90;;;;;;5085969;28;19991;-70
2022/08/07 02:55:41;;;;;;;;;;;14.40;99.90;;;;;;5086207;28;19966;-71
2022/08/07 02:58:10;;;;;;;;;;;14.40;99.90;;;;;;5086376;28;19920;-70
2022/08/07 03:00:38;;;;;;;;;;;14.40;99.90;;;;;;5086131;28;20008;-71
2022/08/07 03:03:05;;;;;;;;;;;14.40;99.90;;;;;;5085626;28;19995;-71
2022/08/07 03:05:36;;;;;;;;;;;14.40;99.90;;;;;;5085825;28;19920;-71
2022/08/07 03:08:03;;;;;;;;;;;14.30;99.90;;;;;;5085825;28;19924;-70
2022/08/07 03:10:29;;;;;;;;;;;14.30;99.90;;;;;;5085131;28;19920;-71
2022/08/07 03:12:56;;;;;;;;;;;14.30;99.90;;;;;;5085827;28;19987;-71
2022/08/07 03:15:23;;;;;;;;;;;14.20;99.90;;;;;;5085666;28;19984;-71
2022/08/07 03:17:50;;;;;;;;;;;14.20;99.90;;;;;;5085461;28;19987;-71
2022/08/07 03:20:17;;;;;;;;;;;14.20;99.90;;;;;;5085529;28;19983;-70
2022/08/07 03:22:46;;;;;;;;;;;14.20;99.90;;;;;;5084461;28;19987;-70
2022/08/07 03:25:13;;;;;;;;;;;14.10;99.90;;;;;;5085580;28;19920;-71
2022/08/07 03:27:41;;;;;;;;;;;14.10;99.90;;;;;;5085279;28;19984;-71
2022/08/07 03:30:08;;;;;;;;;;;14.10;99.90;;;;;;5085477;28;19927;-70
2022/08/07 03:32:36;;;;;;;;;;;14.00;99.90;;;;;;5085107;28;20207;-71
2022/08/07 03:35:05;;;;;;;;;;;14.00;99.90;;;;;;5084999;28;19984;-72
2022/08/07 03:37:34;;;;;;;;;;;14.00;99.90;;;;;;5085294;28;19989;-72
2022/08/07 03:40:03;;;;;;;;;;;14.00;99.90;;;;;;5085268;28;19959;-70
2022/08/07 03:42:30;;;;;;;;;;;13.90;99.90;;;;;;5085082;28;20167;-71
2022/08/07 03:44:57;;;;;;;;;;;13.90;99.90;;;;;;5084717;28;19987;-71
2022/08/07 03:47:23;;;;;;;;;;;13.80;99.90;;;;;;5085115;28;19924;-71
2022/08/07 03:49:50;;;;;;;;;;;13.80;99.90;;;;;;5084850;28;19992;-71
2022/08/07 03:52:17;;;;;;;;;;;13.70;99.90;;;;;;5084998;28;19966;-71
2022/08/07 03:54:44;;;;;;;;;;;13.70;99.90;;;;;;5084986;28;19996;-71
2022/08/07 03:57:12;;;;;;;;;;;13.70;99.90;;;;;;5084877;28;19992;-71
2022/08/07 03:59:40;;;;;;;;;;;13.60;99.90;;;;;;5084660;28;19995;-70
2022/08/07 04:02:06;;;;;;;;;;;13.60;99.90;;;;;;5084984;28;19991;-70
2022/08/07 04:04:34;;;;;;;;;;;13.50;99.90;;;;;;5084549;28;19920;-71
2022/08/07 04:07:00;;;;;;;;;;;13.50;99.90;;;;;;5084701;28;19992;-71
2022/08/07 04:09:27;;;;;;;;;;;13.50;99.90;;;;;;5084802;28;19987;-70
2022/08/07 04:11:55;;;;;;;;;;;13.40;99.90;;;;;;5084461;28;20115;-70
2022/08/07 04:14:24;;;;;;;;;;;13.40;99.90;;;;;;5084593;28;20089;-71
2022/08/07 04:16:50;;;;;;;;;;;13.40;99.90;;;;;;5084565;28;19952;-71
2022/08/07 04:19:17;;;;;;;;;;;13.30;99.90;;;;;;5084385;28;20204;-71
2022/08/07 04:21:44;;;;;;;;;;;13.30;99.90;;;;;;5083490;28;19920;-71
2022/08/07 04:24:11;;;;;;;;;;;13.30;99.90;;;;;;5084018;28;19987;-71
2022/08/07 04:26:38;;;;;;;;;;;13.30;99.90;;;;;;5084054;28;19920;-70
2022/08/07 04:29:06;;;;;;;;;;;13.20;99.90;;;;;;5084292;28;19921;-71
2022/08/07 04:31:34;;;;;;;;;;;13.10;99.90;;;;;;5083002;28;20227;-70
2022/08/07 04:34:01;;;;;;;;;;;13.10;99.90;;;;;;5083986;28;19988;-70
2022/08/07 04:36:28;;;;;;;;;;;13.10;99.90;;;;;;5084268;28;19920;-71
2022/08/07 04:38:55;;;;;;;;;;;13.20;99.90;;;;;;5083911;28;20270;-71
2022/08/07 04:41:21;;;;;;;;;;;13.10;99.90;;;;;;5083982;28;19936;-70
2022/08/07 04:43:49;;;;;;;;;;;13.20;99.90;;;;;;5083761;28;19927;-70
2022/08/07 04:46:19;;;;;;;;;;;13.30;99.90;;;;;;5084133;28;19927;-70
2022/08/07 04:48:49;;;;;;;;;;;13.30;99.90;;;;;;5083715;28;19920;-70
2022/08/07 04:51:19;;;;;;;;;;;13.30;99.90;;;;;;5083993;28;19920;-70
2022/08/07 04:53:50;;;;;;;;;;;13.30;99.90;;;;;;5083416;28;19991;-70
2022/08/07 04:56:20;;;;;;;;;;;13.30;99.90;;;;;;5083713;28;19956;-70
2022/08/07 04:58:49;;;;;;;;;;;13.30;99.90;;;;;;5084018;28;20093;-70
2022/08/07 05:01:20;;;;;;;;;;;13.40;99.90;;;;;;5083755;28;19943;-71
2022/08/07 05:03:52;;;;;;;;;;;13.40;99.90;;;;;;5083759;28;19971;-71
2022/08/07 05:06:22;;;;;;;;;;;13.40;99.90;;;;;;5083561;28;19920;-71
2022/08/07 05:08:51;;;;;;;;;;;13.50;99.90;;;;;;5083889;28;19959;-71
2022/08/07 05:11:21;;;;;;;;;;;13.60;99.90;;;;;;5083398;28;19988;-71
2022/08/07 05:13:51;;;;;;;;;;;13.70;99.90;;;;;;5083211;28;19920;-71
2022/08/07 05:16:18;;;;;;;;;;;13.80;99.90;;;;;;5083555;28;20166;-71
2022/08/07 05:18:48;;;;;;;;;;;13.90;99.90;;;;;;5083269;28;19956;-71
2022/08/07 05:21:17;;;;;;;;;;;14.00;99.90;;;;;;5083363;28;19995;-71
2022/08/07 05:23:46;;;;;;;;;;;14.00;99.90;;;;;;5082999;28;20173;-70
2022/08/07 05:26:16;;;;;;;;;;;14.10;99.90;;;;;;5083456;28;19920;-71
2022/08/07 05:28:44;;;;;;;;;;;14.20;99.90;;;;;;5083157;28;19987;-70
2022/08/07 05:31:11;;;;;;;;;;;14.30;99.90;;;;;;5083175;28;20168;-70
2022/08/07 05:33:38;;;;;;;;;;;14.40;99.90;;;;;;5081818;28;19983;-70
2022/08/07 05:36:06;;;;;;;;;;;14.50;99.90;;;;;;5083362;28;20176;-71
2022/08/07 05:38:35;;;;;;;;;;;14.60;99.90;;;;;;5083417;28;19983;-70
2022/08/07 05:41:02;;;;;;;;;;;14.70;99.90;;;;;;5083363;28;19983;-71
2022/08/07 05:43:29;;;;;;;;;;;14.80;99.90;;;;;;5082850;28;20232;-70
2022/08/07 05:45:56;;;;;;;;;;;14.90;99.90;;;;;;5083195;28;19951;-71
2022/08/07 05:48:23;;;;;;;;;;;15.10;99.90;;;;;;5082871;28;20291;-71
2022/08/07 05:50:50;;;;;;;;;;;15.20;99.90;;;;;;5083371;28;19988;-71
2022/08/07 05:53:17;;;;;;;;;;;15.30;99.90;;;;;;5082779;28;20198;-70
2022/08/07 05:55:45;;;;;;;;;;;15.40;99.90;;;;;;5082895;28;19988;-70
2022/08/07 05:58:12;;;;;;;;;;;15.60;99.90;;;;;;5082997;28;19920;-71
2022/08/07 06:00:38;;;;;;;;;;;15.70;99.90;;;;;;5083017;28;19963;-71
2022/08/07 06:03:06;;;;;;;;;;;15.80;99.90;;;;;;5082652;28;20279;-71
2022/08/07 06:05:33;;;;;;;;;;;15.80;99.90;;;;;;5083065;28;19980;-71
2022/08/07 06:08:00;;;;;;;;;;;15.90;99.90;;;;;;5082908;28;20127;-71
2022/08/07 06:10:27;;;;;;;;;;;15.90;99.90;;;;;;5083070;28;20254;-71
2022/08/07 06:12:55;;;;;;;;;;;16.00;99.90;;;;;;5082435;28;20279;-71
2022/08/07 06:15:23;;;;;;;;;;;16.10;99.90;;;;;;5083016;28;19921;-70
2022/08/07 06:17:50;;;;;;;;;;;16.10;99.90;;;;;;5082696;28;20226;-70
2022/08/07 06:20:17;;;;;;;;;;;16.20;99.90;;;;;;5083231;28;19920;-71
2022/08/07 06:22:44;;;;;;;;;;;16.20;99.90;;;;;;5082541;28;19988;-71
2022/08/07 06:25:11;;;;;;;;;;;16.20;99.90;;;;;;5082716;28;20175;-71
2022/08/07 06:27:38;;;;;;;;;;;16.30;99.90;;;;;;5082481;28;19963;-70
2022/08/07 06:30:07;;;;;;;;;;;16.40;99.90;;;;;;5082794;28;19987;-71
2022/08/07 06:32:33;;;;;;;;;;;16.40;99.90;;;;;;5081537;28;19980;-70
2022/08/07 06:35:00;;;;;;;;;;;16.50;99.90;;;;;;5082730;28;19928;-71
2022/08/07 06:37:27;;;;;;;;;;;16.60;99.90;;;;;;5082743;28;19928;-71
2022/08/07 06:39:53;;;;;;;;;;;16.70;99.90;;;;;;5082477;28;19924;-70
2022/08/07 06:42:21;;;;;;;;;;;16.80;99.90;;;;;;5082947;28;20110;-71
2022/08/07 06:44:49;;;;;;;;;;;16.80;99.90;;;;;;5082913;28;19924;-71
2022/08/07 06:47:17;;;;;;;;;;;16.80;99.90;;;;;;5086362;28;20168;-72
2022/08/07 06:49:44;;;;;;;;;;;16.90;99.90;;;;;;5086172;28;20123;-71
2022/08/07 06:52:12;;;;;;;;;;;17.00;99.90;;;;;;5086158;28;19999;-71
2022/08/07 06:54:39;;;;;;;;;;;17.00;99.90;;;;;;5085605;28;20283;-71
2022/08/07 06:57:07;;;;;;;;;;;17.00;99.90;;;;;;5086026;28;19983;-71
2022/08/07 06:59:37;;;;;;;;;;;17.10;99.90;;;;;;5085254;28;20394;-71
2022/08/07 07:02:05;;;;;;;;;;;17.20;99.90;;;;;;5086026;28;19920;-71
2022/08/07 07:04:33;;;;;;;;;;;17.30;99.90;;;;;;5085690;28;19983;-71
2022/08/07 07:07:01;;;;;;;;;;;17.30;99.90;;;;;;5085689;28;20251;-70
2022/08/07 07:55:51;;;;;;;;;;;19.30;99.90;;;;;;5022067;28;19925;-70
2022/08/07 07:58:18;;;;;;;;;;;19.30;99.90;;;;;;5072550;28;19955;-71
2022/08/07 08:00:46;;;;;;;;;;;19.40;99.90;;;;;;5085247;28;19987;-71
2022/08/07 08:03:15;;;;;;;;;;;19.50;99.90;;;;;;5084378;28;19988;-70
2022/08/07 08:05:42;;;;;;;;;;;19.60;99.90;;;;;;5084804;28;19920;-71
2022/08/07 08:08:10;;;;;;;;;;;19.70;99.90;;;;;;5084652;28;20178;-71
2022/08/07 08:10:37;;;;;;;;;;;19.80;99.90;;;;;;5084632;28;19927;-71
2022/08/07 08:13:07;;;;;;;;;;;19.90;99.90;;;;;;5084260;28;19988;-71
2022/08/07 08:15:35;;;;;;;;;;;20.00;99.40;;;;;;5084557;28;19956;-71
2022/08/07 08:18:02;;;;;;;;;;;20.00;99.40;;;;;;5084197;28;19980;-71
2022/08/07 08:20:31;;;;;;;;;;;20.00;99.50;;;;;;5084511;28;19928;-72
2022/08/07 08:28:29;;;;;;;;;;;20.30;98.50;;;;;;5084028;28;19978;-70
2022/08/07 08:30:58;;;;;;;;;;;20.30;98.30;;;;;;5084432;28;19955;-73
2022/08/07 08:33:26;;;;;;;;;;;20.40;98.60;;;;;;5083090;28;20222;-73
2022/08/07 08:35:54;;;;;;;;;;;20.40;98.50;;;;;;5084239;28;20016;-71
2022/08/07 08:38:22;;;;;;;;;;;20.50;97.70;;;;;;5084106;28;20230;-71
2022/08/07 08:40:54;;;;;;;;;;;20.60;98.10;;;;;;5083841;28;19991;-71
2022/08/07 08:43:23;;;;;;;;;;;20.60;97.60;;;;;;5083993;28;19921;-72
2022/08/07 08:45:53;;;;;;;;;;;20.70;97.50;;;;;;5083701;28;19983;-71
2022/08/07 08:48:24;;;;;;;;;;;20.80;97.40;;;;;;5083905;28;19920;-72
2022/08/07 08:50:54;;;;;;;;;;;20.80;97.00;;;;;;5083968;28;19983;-71
2022/08/07 08:53:25;;;;;;;;;;;20.90;95.80;;;;;;5083535;28;20116;-71
2022/08/07 08:55:54;;;;;;;;;;;21.00;95.70;;;;;;5083911;28;19952;-71
2022/08/07 08:58:26;;;;;;;;;;;21.00;95.70;;;;;;5083826;28;20009;-72
2022/08/07 09:00:58;;;;;;;;;;;21.00;95.30;;;;;;5083646;28;19984;-72
2022/08/07 09:03:27;;;;;;;;;;;21.10;95.30;;;;;;5083481;28;19921;-71
2022/08/07 09:05:55;;;;;;;;;;;21.10;96.00;;;;;;5084229;28;19991;-71
2022/08/07 09:08:28;;;;;;;;;;;21.20;95.70;;;;;;5083570;28;19920;-72
2022/08/07 09:11:00;;;;;;;;;;;21.30;96.00;;;;;;5083591;28;19966;-71
2022/08/07 09:13:43;;;;;;;;;;;21.40;95.50;;;;;;5083241;28;19956;-71
2022/08/07 09:16:17;;;;;;;;;;;21.50;95.00;;;;;;5084004;28;20047;-72
2022/08/07 09:19:09;;;;;;;;;;;21.50;95.60;;;;;;5083770;28;19987;-73
2022/08/07 09:21:39;;;;;;;;;;;21.60;95.70;;;;;;5083688;28;19921;-72
2022/08/07 09:24:22;;;;;;;;;;;21.60;94.90;;;;;;5083448;28;19956;-71
2022/08/07 09:26:53;;;;;;;;;;;21.50;95.60;;;;;;5083299;28;19963;-71
2022/08/07 09:29:23;;;;;;;;;;;21.50;95.60;;;;;;5083252;28;19980;-71
2022/08/07 09:32:08;;;;;;;;;;;21.60;95.30;;;;;;5083071;28;19955;-73
2022/08/07 09:34:44;;;;;;;;;;;21.70;93.30;;;;;;5083228;28;19955;-72
2022/08/07 09:37:14;;;;;;;;;;;21.80;93.00;;;;;;5083330;28;19920;-72
2022/08/07 09:39:46;;;;;;;;;;;21.90;93.30;;;;;;5083331;28;19921;-72
2022/08/07 09:42:17;;;;;;;;;;;21.90;93.00;;;;;;5083312;28;19920;-71
2022/08/07 09:44:48;;;;;;;;;;;22.00;92.70;;;;;;5082948;28;20178;-72
2022/08/07 09:47:17;;;;;;;;;;;22.10;93.70;;;;;;5083503;28;19928;-72
2022/08/07 09:49:51;;;;;;;;;;;22.10;93.00;;;;;;5082820;28;19929;-72
2022/08/07 09:52:21;;;;;;;;;;;22.20;92.60;;;;;;5083297;28;19952;-71
2022/08/07 09:54:53;;;;;;;;;;;22.30;91.90;;;;;;5082775;28;19920;-71
2022/08/07 09:57:48;;;;;;;;;;;22.40;91.80;;;;;;5083205;28;19928;-72
2022/08/07 10:00:16;;;;;;;;;;;22.50;92.40;;;;;;5083323;28;20176;-72
2022/08/07 10:03:04;;;;;;;;;;;22.60;92.10;;;;;;5083139;28;19927;-72
2022/08/07 10:05:46;;;;;;;;;;;22.70;91.10;;;;;;5083117;28;19926;-72
2022/08/07 10:08:19;;;;;;;;;;;22.80;90.10;;;;;;5080974;28;19987;-72
2022/08/07 10:10:49;;;;;;;;;;;22.80;89.40;;;;;;5083035;28;20212;-72
2022/08/07 10:13:33;;;;;;;;;;;22.80;90.10;;;;;;5082897;28;20212;-73
2022/08/07 10:16:04;;;;;;;;;;;22.80;90.90;;;;;;5083289;28;19979;-72
2022/08/07 10:18:39;;;;;;;;;;;22.90;91.10;;;;;;5082986;28;19943;-72
2022/08/07 10:21:13;;;;;;;;;;;23.00;90.80;;;;;;5086262;28;19924;-71
2022/08/07 10:23:49;;;;;;;;;;;23.10;87.80;;;;;;5086531;28;20211;-72
2022/08/07 10:26:36;;;;;;;;;;;23.20;86.00;;;;;;5087119;28;19926;-72
2022/08/07 10:29:12;;;;;;;;;;;23.20;87.10;;;;;;5086691;28;19920;-72
2022/08/07 10:31:47;;;;;;;;;;;23.30;84.80;;;;;;5086872;28;20246;-71
2022/08/07 10:34:23;;;;;;;;;;;23.40;86.60;;;;;;5086740;28;19920;-72
2022/08/07 10:36:57;;;;;;;;;;;23.50;89.20;;;;;;5086595;28;19955;-72
2022/08/07 10:39:28;;;;;;;;;;;23.50;86.50;;;;;;5086385;28;19988;-71
2022/08/07 10:42:06;;;;;;;;;;;23.60;88.20;;;;;;5086423;28;19956;-71
2022/08/07 10:44:34;;;;;;;;;;;23.70;88.90;;;;;;5086222;28;19979;-73
2022/08/07 10:47:05;;;;;;;;;;;23.80;88.30;;;;;;5086365;28;19979;-72
2022/08/07 10:49:35;;;;;;;;;;;23.90;87.70;;;;;;5086216;28;19960;-71
2022/08/07 10:52:05;;;;;;;;;;;23.90;88.00;;;;;;5085939;28;20208;-73
2022/08/07 10:54:35;;;;;;;;;;;24.00;87.50;;;;;;5085979;28;20116;-72
2022/08/07 10:57:10;;;;;;;;;;;24.00;88.20;;;;;;5086242;28;19943;-73
2022/08/07 10:59:45;;;;;;;;;;;24.10;87.10;;;;;;5086047;28;19920;-72
2022/08/07 11:02:16;;;;;;;;;;;24.20;87.40;;;;;;5086072;28;19956;-71
2022/08/07 11:04:52;;;;;;;;;;;24.30;88.70;;;;;;5085602;28;19958;-72
2022/08/07 11:07:23;;;;;;;;;;;24.40;85.80;;;;;;5086154;28;19927;-72
2022/08/07 11:09:53;;;;;;;;;;;24.40;86.50;;;;;;5085739;28;20307;-71
2022/08/07 11:12:22;;;;;;;;;;;24.50;87.70;;;;;;5085826;28;20124;-71
2022/08/07 11:14:52;;;;;;;;;;;24.50;84.40;;;;;;5085515;28;19927;-72
2022/08/07 11:17:21;;;;;;;;;;;24.30;83.60;;;;;;5085657;28;19995;-72
2022/08/07 11:19:51;;;;;;;;;;;24.40;85.00;;;;;;5085838;28;19920;-72
2022/08/07 11:22:22;;;;;;;;;;;24.30;83.60;;;;;;5085195;28;19924;-72
2022/08/07 11:24:51;;;;;;;;;;;24.30;83.90;;;;;;5085521;28;19920;-72
2022/08/07 11:27:21;;;;;;;;;;;24.40;84.70;;;;;;5085491;28;19920;-71
2022/08/07 11:29:51;;;;;;;;;;;24.50;82.60;;;;;;5085278;28;19935;-71
2022/08/07 11:32:20;;;;;;;;;;;24.60;83.10;;;;;;5085056;28;19948;-71
2022/08/07 11:34:50;;;;;;;;;;;24.80;83.30;;;;;;5085230;28;19948;-72
2022/08/07 11:37:24;;;;;;;;;;;25.00;82.20;;;;;;5085268;28;20226;-71
2022/08/07 11:39:59;;;;;;;;;;;25.00;81.70;;;;;;5085179;28;19934;-70
2022/08/07 11:42:34;;;;;;;;;;;24.80;80.40;;;;;;5085336;28;19928;-72
2022/08/07 11:45:10;;;;;;;;;;;24.80;80.50;;;;;;5085126;28;19921;-72
2022/08/07 11:47:43;;;;;;;;;;;24.80;81.30;;;;;;5085235;28;20002;-72
2022/08/07 11:50:21;;;;;;;;;;;24.80;79.80;;;;;;5084963;28;19927;-72
2022/08/07 11:52:55;;;;;;;;;;;24.90;79.50;;;;;;5084935;28;19948;-72
2022/08/07 11:55:31;;;;;;;;;;;25.10;81.10;;;;;;5085428;28;19992;-72
2022/08/07 11:58:02;;;;;;;;;;;25.20;78.30;;;;;;5084800;28;19959;-71
2022/08/07 12:00:32;;;;;;;;;;;25.20;79.20;;;;;;5084904;28;19988;-72
2022/08/07 12:03:18;;;;;;;;;;;25.40;79.30;;;;;;5084359;28;19952;-71
2022/08/07 12:05:55;;;;;;;;;;;25.50;78.20;;;;;;5084946;28;19987;-73
2022/08/07 12:08:37;;;;;;;;;;;25.50;77.00;;;;;;5084783;28;19970;-72
2022/08/07 12:11:06;;;;;;;;;;;25.60;75.80;;;;;;5084728;28;19992;-73
2022/08/07 12:13:38;;;;;;;;;;;25.80;77.00;;;;;;5084381;28;19991;-73
2022/08/07 12:16:08;;;;;;;;;;;25.90;76.40;;;;;;5084796;28;19921;-72
2022/08/07 12:18:36;;;;;;;;;;;25.80;77.00;;;;;;5084783;28;19948;-72
2022/08/07 12:21:12;;;;;;;;;;;25.80;77.00;;;;;;5083693;28;19920;-71
2022/08/07 12:23:42;;;;;;;;;;;25.80;76.80;;;;;;5084171;28;19920;-72
2022/08/07 12:26:11;;;;;;;;;;;25.90;77.40;;;;;;5084408;28;19924;-71
2022/08/07 12:28:43;;;;;;;;;;;25.90;74.90;;;;;;5084357;28;19917;-70
2022/08/07 12:31:13;;;;;;;;;;;25.90;74.40;;;;;;5084199;28;19920;-71
2022/08/07 12:33:40;;;;;;;;;;;26.10;76.40;;;;;;5083813;28;19963;-71
2022/08/07 12:36:10;;;;;;;;;;;26.30;76.50;;;;;;5084114;28;20181;-71
2022/08/07 12:38:38;;;;;;;;;;;26.30;75.40;;;;;;5084064;28;19920;-72
2022/08/07 12:41:05;;;;;;;;;;;26.30;75.60;;;;;;5084295;28;19952;-71
2022/08/07 12:43:34;;;;;;;;;;;26.50;75.40;;;;;;5082981;28;19952;-71
2022/08/07 12:46:08;;;;;;;;;;;26.70;74.90;;;;;;5084107;28;20003;-72
2022/08/07 12:48:39;;;;;;;;;;;26.80;73.00;;;;;;5083922;28;20015;-71
2022/08/07 12:51:11;;;;;;;;;;;26.90;73.00;;;;;;5085016;28;19987;-71
2022/08/07 12:53:42;;;;;;;;;;;27.00;73.10;;;;;;5085663;28;19920;-71
2022/08/07 12:56:10;;;;;;;;;;;27.10;70.50;;;;;;5084983;28;19983;-71
2022/08/07 12:58:38;;;;;;;;;;;26.90;69.60;;;;;;5083902;28;19920;-71
2022/08/07 13:01:07;;;;;;;;;;;26.90;69.90;;;;;;5083702;28;20166;-71
2022/08/07 13:03:55;;;;;;;;;;;26.60;70.60;;;;;;5083308;28;20111;-72
2022/08/07 13:06:29;;;;;;;;;;;26.50;70.40;;;;;;5080029;28;19927;-71
2022/08/07 13:09:01;;;;;;;;;;;26.60;71.70;;;;;;5083513;28;19924;-71
2022/08/07 13:11:38;;;;;;;;;;;26.70;69.30;;;;;;5083540;28;19952;-72
2022/08/07 13:14:08;;;;;;;;;;;26.70;70.10;;;;;;5083537;28;20161;-71
2022/08/07 13:16:40;;;;;;;;;;;26.80;71.10;;;;;;5083705;28;19966;-71
2022/08/07 13:19:12;;;;;;;;;;;26.90;69.30;;;;;;5083628;28;20051;-72
2022/08/07 13:21:42;;;;;;;;;;;27.00;68.40;;;;;;5082548;28;20263;-72
2022/08/07 13:24:15;;;;;;;;;;;27.30;66.50;;;;;;5083065;28;19948;-72
2022/08/07 13:26:43;;;;;;;;;;;27.50;66.60;;;;;;5083754;28;19956;-73
2022/08/07 13:29:12;;;;;;;;;;;27.50;65.70;;;;;;5105792;22;20254;-88
2022/08/07 13:31:45;;;;;;;;;;;27.50;66.90;;;;;;5064272;28;19920;-89
2022/08/07 13:34:16;;;;;;;;;;;27.60;68.10;;;;;;5063846;28;19975;-88
2022/08/07 13:36:49;;;;;;;;;;;27.60;66.20;;;;;;5064011;28;20128;-88
2022/08/07 13:39:17;;;;;;;;;;;27.60;67.00;;;;;;5063646;28;19944;-88
2022/08/07 13:41:44;;;;;;;;;;;27.60;66.30;;;;;;5063714;28;19944;-89
2022/08/07 13:44:12;;;;;;;;;;;27.60;66.80;;;;;;5078813;23;19927;-71
2022/08/07 13:46:41;;;;;;;;;;;27.80;67.80;;;;;;5073058;28;19929;-71
2022/08/07 13:49:09;;;;;;;;;;;28.00;67.80;;;;;;5071956;28;19921;-70
2022/08/07 13:51:38;;;;;;;;;;;28.30;65.30;;;;;;5067127;28;19920;-71
2022/08/07 13:54:09;;;;;;;;;;;28.40;64.10;;;;;;5077330;28;19928;-72
2022/08/07 13:56:37;;;;;;;;;;;28.30;64.80;;;;;;5105306;22;19920;-71
2022/08/07 13:59:07;;;;;;;;;;;28.50;64.30;;;;;;5067599;28;20167;-71
2022/08/07 14:01:36;;;;;;;;;;;28.40;64.10;;;;;;5067472;28;19960;-71
2022/08/07 14:04:06;;;;;;;;;;;28.20;64.70;;;;;;5067188;28;19928;-71
2022/08/07 14:06:35;;;;;;;;;;;28.30;65.40;;;;;;5087657;28;19962;-71
2022/08/07 14:09:03;;;;;;;;;;;28.20;65.60;;;;;;5087850;28;19921;-71
2022/08/07 14:11:32;;;;;;;;;;;28.50;66.90;;;;;;5087348;28;19921;-71
2022/08/07 14:14:02;;;;;;;;;;;28.80;65.50;;;;;;5086867;28;19960;-71
2022/08/07 14:16:31;;;;;;;;;;;29.10;63.70;;;;;;5087315;28;19964;-71
2022/08/07 14:18:58;;;;;;;;;;;29.20;63.30;;;;;;5087182;28;19963;-71
2022/08/07 14:21:27;;;;;;;;;;;29.10;62.90;;;;;;5087551;28;20123;-71
2022/08/07 14:23:56;;;;;;;;;;;29.10;64.70;;;;;;5086966;28;20235;-71
2022/08/07 14:26:23;;;;;;;;;;;28.90;64.80;;;;;;5087162;28;19921;-71
2022/08/07 14:28:53;;;;;;;;;;;29.00;64.10;;;;;;5086826;28;20227;-71
2022/08/07 14:31:22;;;;;;;;;;;29.20;65.00;;;;;;5087169;28;19926;-71
2022/08/07 14:33:51;;;;;;;;;;;29.40;65.50;;;;;;5086450;28;19921;-71
2022/08/07 14:36:18;;;;;;;;;;;29.50;63.50;;;;;;5086904;28;19927;-71
2022/08/07 14:38:48;;;;;;;;;;;29.50;63.30;;;;;;5086750;28;19962;-70
2022/08/07 14:41:22;;;;;;;;;;;29.50;62.80;;;;;;5086828;28;20212;-70
2022/08/07 14:43:50;;;;;;;;;;;29.40;62.50;;;;;;5086496;28;19963;-71
2022/08/07 14:46:19;;;;;;;;;;;29.40;61.50;;;;;;5086635;28;19927;-71
2022/08/07 14:48:47;;;;;;;;;;;29.40;61.20;;;;;;5086631;28;19983;-71
2022/08/07 14:51:18;;;;;;;;;;;29.10;59.20;;;;;;5086583;28;19927;-71
2022/08/07 14:53:45;;;;;;;;;;;28.80;60.70;;;;;;5085943;28;19928;-71
2022/08/07 14:56:13;;;;;;;;;;;28.70;60.60;;;;;;5086641;28;20140;-71
2022/08/07 14:58:41;;;;;;;;;;;28.80;60.60;;;;;;5086700;28;19955;-71
2022/08/07 15:01:09;;;;;;;;;;;29.00;60.90;;;;;;5086250;28;20287;-71
2022/08/07 15:03:39;;;;;;;;;;;29.20;61.00;;;;;;5086066;28;19983;-71
2022/08/07 15:06:06;;;;;;;;;;;29.40;60.50;;;;;;5085310;28;19920;-71
2022/08/07 15:08:35;;;;;;;;;;;29.30;60.10;;;;;;5086387;28;19963;-71
2022/08/07 15:11:03;;;;;;;;;;;29.20;59.20;;;;;;5086120;28;19943;-70
2022/08/07 15:13:31;;;;;;;;;;;29.10;59.50;;;;;;5085776;28;19983;-71
2022/08/07 15:16:01;;;;;;;;;;;29.10;59.50;;;;;;5085908;28;19924;-71
2022/08/07 15:18:31;;;;;;;;;;;29.00;59.80;;;;;;5086588;28;19951;-70
2022/08/07 15:21:01;;;;;;;;;;;29.00;59.10;;;;;;5086257;28;20247;-71